sensor_id;sensor_type;location;lat;lon;timestamp;temperature;humidity
31542;DHT22;18152;49.986;8.646;2022-08-04T00:03:00;19.50;99.90
31542;DHT22;18152;49.986;8.646;2022-08-04T00:05:32;19.50;99.90
31542;DHT22;18152;49.986;8.646;2022-08-04T00:10:57;19.50;99.90
31542;DHT22;18152;49.986;8.646;2022-08-04T00:13:26;19.40;99.90
31542;DHT22;18152;49.986;8.646;2022-08-04T00:16:01;19.40;99.90
31542;DHT22;18152;49.986;8.646;2022-08-04T00:18:54;19.40;99.90
31542;DHT22;18152;49.986;8.646;2022-08-04T00:21:21;19.40;99.90
31542;DHT22;18152;49.986;8.646;2022-08-04T00:23:48;19.30;99.90
31542;DHT22;18152;49.986;8.646;2022-08-04T00:26:16;19.30;99.90
31542;DHT22;18152;49.986;8.646;2022-08-04T00:28:42;19.30;99.90
31542;DHT22;18152;49.986;8.646;2022-08-04T00:31:13;19.20;99.90
31542;DHT22;18152;49.986;8.646;2022-08-04T00:33:42;19.20;99.90
31542;DHT22;18152;49.986;8.646;2022-08-04T00:36:10;19.10;99.90
31542;DHT22;18152;49.986;8.646;2022-08-04T00:38:36;19.10;99.90
31542;DHT22;18152;49.986;8.646;2022-08-04T00:41:12;19.00;99.90
31542;DHT22;18152;49.986;8.646;2022-08-04T00:49:50;18.90;99.90
31542;DHT22;18152;49.986;8.646;2022-08-04T00:55:52;18.90;99.90
31542;DHT22;18152;49.986;8.646;2022-08-04T01:04:09;18.80;99.90
31542;DHT22;18152;49.986;8.646;2022-08-04T01:10:09;18.80;99.90
31542;DHT22;18152;49.986;8.646;2022-08-04T01:12:53;18.80;99.90
31542;DHT22;18152;49.986;8.646;2022-08-04T01:15:44;18.80;99.90
31542;DHT22;18152;49.986;8.646;2022-08-04T01:24:29;18.70;99.90
31542;DHT22;18152;49.986;8.646;2022-08-04T01:27:09;18.80;99.90
31542;DHT22;18152;49.986;8.646;2022-08-04T01:29:55;18.80;99.90
31542;DHT22;18152;49.986;8.646;2022-08-04T01:32:47;18.80;99.90
31542;DHT22;18152;49.986;8.646;2022-08-04T01:35:22;18.80;99.90
31542;DHT22;18152;49.986;8.646;2022-08-04T01:37:55;18.70;99.90
31542;DHT22;18152;49.986;8.646;2022-08-04T01:40:26;18.70;99.90
31542;DHT22;18152;49.986;8.646;2022-08-04T01:42:53;18.70;99.90
31542;DHT22;18152;49.986;8.646;2022-08-04T01:45:23;18.80;99.90
31542;DHT22;18152;49.986;8.646;2022-08-04T01:47:51;18.80;99.90
31542;DHT22;18152;49.986;8.646;2022-08-04T01:50:17;18.80;99.90
31542;DHT22;18152;49.986;8.646;2022-08-04T01:52:45;18.70;99.90
31542;DHT22;18152;49.986;8.646;2022-08-04T01:55:13;18.70;99.90
31542;DHT22;18152;49.986;8.646;2022-08-04T01:57:43;18.70;99.90
31542;DHT22;18152;49.986;8.646;2022-08-04T02:00:12;18.70;99.90
31542;DHT22;18152;49.986;8.646;2022-08-04T02:02:38;18.70;99.90
31542;DHT22;18152;49.986;8.646;2022-08-04T02:05:04;18.70;99.90
31542;DHT22;18152;49.986;8.646;2022-08-04T02:13:22;18.60;99.90
31542;DHT22;18152;49.986;8.646;2022-08-04T02:16:15;18.80;99.90
31542;DHT22;18152;49.986;8.646;2022-08-04T02:18:56;18.80;99.90
31542;DHT22;18152;49.986;8.646;2022-08-04T02:21:26;18.80;99.90
31542;DHT22;18152;49.986;8.646;2022-08-04T02:24:03;18.80;99.90
31542;DHT22;18152;49.986;8.646;2022-08-04T02:26:31;18.80;99.90
31542;DHT22;18152;49.986;8.646;2022-08-04T02:29:34;18.80;99.90
31542;DHT22;18152;49.986;8.646;2022-08-04T02:32:05;18.80;99.90
31542;DHT22;18152;49.986;8.646;2022-08-04T02:34:38;18.70;99.90
31542;DHT22;18152;49.986;8.646;2022-08-04T02:37:07;18.70;99.90
31542;DHT22;18152;49.986;8.646;2022-08-04T02:39:36;18.80;99.90
31542;DHT22;18152;49.986;8.646;2022-08-04T02:42:03;18.80;99.90
31542;DHT22;18152;49.986;8.646;2022-08-04T02:44:30;18.80;99.90
31542;DHT22;18152;49.986;8.646;2022-08-04T02:46:57;18.80;99.90
31542;DHT22;18152;49.986;8.646;2022-08-04T02:49:25;18.80;99.90
31542;DHT22;18152;49.986;8.646;2022-08-04T02:51:53;18.90;99.90
31542;DHT22;18152;49.986;8.646;2022-08-04T02:54:24;18.90;99.90
31542;DHT22;18152;49.986;8.646;2022-08-04T02:56:51;18.90;99.90
31542;DHT22;18152;49.986;8.646;2022-08-04T02:59:19;18.90;99.90
31542;DHT22;18152;49.986;8.646;2022-08-04T03:01:47;18.90;99.90
31542;DHT22;18152;49.986;8.646;2022-08-04T03:16:18;18.80;99.90
31542;DHT22;18152;49.986;8.646;2022-08-04T03:19:26;18.80;99.90
31542;DHT22;18152;49.986;8.646;2022-08-04T03:30:40;18.70;99.90
31542;DHT22;18152;49.986;8.646;2022-08-04T03:49:40;18.70;99.90
31542;DHT22;18152;49.986;8.646;2022-08-04T03:52:42;18.70;99.90
31542;DHT22;18152;49.986;8.646;2022-08-04T03:58:38;18.60;99.90
31542;DHT22;18152;49.986;8.646;2022-08-04T04:01:42;18.50;99.90
31542;DHT22;18152;49.986;8.646;2022-08-04T04:16:06;18.50;99.90
31542;DHT22;18152;49.986;8.646;2022-08-04T04:24:05;18.50;99.90
31542;DHT22;18152;49.986;8.646;2022-08-04T04:41:11;18.40;99.90
31542;DHT22;18152;49.986;8.646;2022-08-04T04:46:55;18.40;99.90
31542;DHT22;18152;49.986;8.646;2022-08-04T04:49:48;18.50;99.90
31542;DHT22;18152;49.986;8.646;2022-08-04T04:55:25;18.60;99.90
31542;DHT22;18152;49.986;8.646;2022-08-04T04:58:00;18.50;99.90
31542;DHT22;18152;49.986;8.646;2022-08-04T05:00:45;18.60;99.90
31542;DHT22;18152;49.986;8.646;2022-08-04T05:09:06;18.50;99.90
31542;DHT22;18152;49.986;8.646;2022-08-04T05:14:48;18.60;99.90
31542;DHT22;18152;49.986;8.646;2022-08-04T05:17:19;18.60;99.90
31542;DHT22;18152;49.986;8.646;2022-08-04T05:20:17;18.60;99.90
31542;DHT22;18152;49.986;8.646;2022-08-04T05:25:48;18.90;99.90
31542;DHT22;18152;49.986;8.646;2022-08-04T05:28:22;19.00;99.90
31542;DHT22;18152;49.986;8.646;2022-08-04T05:30:55;19.10;99.90
31542;DHT22;18152;49.986;8.646;2022-08-04T05:33:25;19.10;99.90
31542;DHT22;18152;49.986;8.646;2022-08-04T05:35:55;19.10;99.90
31542;DHT22;18152;49.986;8.646;2022-08-04T05:38:26;19.20;99.90
31542;DHT22;18152;49.986;8.646;2022-08-04T05:40:54;19.30;99.90
31542;DHT22;18152;49.986;8.646;2022-08-04T05:43:22;19.40;99.90
31542;DHT22;18152;49.986;8.646;2022-08-04T05:45:50;19.40;99.90
31542;DHT22;18152;49.986;8.646;2022-08-04T05:48:16;19.50;99.90
31542;DHT22;18152;49.986;8.646;2022-08-04T05:50:44;19.60;99.90
31542;DHT22;18152;49.986;8.646;2022-08-04T05:53:10;19.80;99.90
31542;DHT22;18152;49.986;8.646;2022-08-04T05:55:37;19.90;99.90
31542;DHT22;18152;49.986;8.646;2022-08-04T05:58:03;20.10;99.90
31542;DHT22;18152;49.986;8.646;2022-08-04T06:00:30;20.20;99.90
31542;DHT22;18152;49.986;8.646;2022-08-04T06:02:56;20.30;99.90
31542;DHT22;18152;49.986;8.646;2022-08-04T06:05:23;20.40;99.90
31542;DHT22;18152;49.986;8.646;2022-08-04T06:07:49;20.40;99.90
31542;DHT22;18152;49.986;8.646;2022-08-04T06:10:15;20.60;99.90
31542;DHT22;18152;49.986;8.646;2022-08-04T06:13:01;20.70;99.90
31542;DHT22;18152;49.986;8.646;2022-08-04T06:15:28;20.80;99.90
31542;DHT22;18152;49.986;8.646;2022-08-04T06:17:57;20.80;99.90
31542;DHT22;18152;49.986;8.646;2022-08-04T06:20:29;20.90;99.90
31542;DHT22;18152;49.986;8.646;2022-08-04T06:22:59;21.10;99.90
31542;DHT22;18152;49.986;8.646;2022-08-04T06:25:30;21.30;99.90
31542;DHT22;18152;49.986;8.646;2022-08-04T06:27:57;21.30;99.90
31542;DHT22;18152;49.986;8.646;2022-08-04T06:30:25;21.50;99.90
31542;DHT22;18152;49.986;8.646;2022-08-04T06:32:52;21.60;99.90
31542;DHT22;18152;49.986;8.646;2022-08-04T06:35:23;21.80;99.90
31542;DHT22;18152;49.986;8.646;2022-08-04T06:37:51;22.00;99.90
31542;DHT22;18152;49.986;8.646;2022-08-04T06:40:19;22.10;99.90
31542;DHT22;18152;49.986;8.646;2022-08-04T06:42:47;22.30;99.90
31542;DHT22;18152;49.986;8.646;2022-08-04T06:45:14;22.60;99.90
31542;DHT22;18152;49.986;8.646;2022-08-04T06:47:41;22.90;99.90
31542;DHT22;18152;49.986;8.646;2022-08-04T06:50:08;22.90;99.90
31542;DHT22;18152;49.986;8.646;2022-08-04T06:52:35;22.90;99.90
31542;DHT22;18152;49.986;8.646;2022-08-04T06:55:02;23.10;99.90
31542;DHT22;18152;49.986;8.646;2022-08-04T06:57:29;23.00;99.90
31542;DHT22;18152;49.986;8.646;2022-08-04T07:00:10;23.20;99.90
31542;DHT22;18152;49.986;8.646;2022-08-04T07:02:49;23.20;99.90
31542;DHT22;18152;49.986;8.646;2022-08-04T07:05:16;23.20;99.90
31542;DHT22;18152;49.986;8.646;2022-08-04T07:07:43;23.30;99.90
31542;DHT22;18152;49.986;8.646;2022-08-04T07:10:10;23.30;99.90
31542;DHT22;18152;49.986;8.646;2022-08-04T07:12:37;23.70;99.90
31542;DHT22;18152;49.986;8.646;2022-08-04T07:15:04;23.80;99.90
31542;DHT22;18152;49.986;8.646;2022-08-04T07:17:31;24.00;99.90
31542;DHT22;18152;49.986;8.646;2022-08-04T07:19:58;24.30;99.90
31542;DHT22;18152;49.986;8.646;2022-08-04T07:22:24;24.70;99.90
31542;DHT22;18152;49.986;8.646;2022-08-04T07:24:55;25.20;99.90
31542;DHT22;18152;49.986;8.646;2022-08-04T07:27:21;25.40;99.90
31542;DHT22;18152;49.986;8.646;2022-08-04T07:29:47;25.60;99.90
31542;DHT22;18152;49.986;8.646;2022-08-04T07:32:13;25.70;99.90
31542;DHT22;18152;49.986;8.646;2022-08-04T07:34:41;25.80;99.90
31542;DHT22;18152;49.986;8.646;2022-08-04T07:37:07;25.60;99.90
31542;DHT22;18152;49.986;8.646;2022-08-04T07:39:33;25.80;99.90
31542;DHT22;18152;49.986;8.646;2022-08-04T07:42:02;26.00;99.90
31542;DHT22;18152;49.986;8.646;2022-08-04T07:44:29;26.40;99.90
31542;DHT22;18152;49.986;8.646;2022-08-04T07:46:55;26.40;99.90
31542;DHT22;18152;49.986;8.646;2022-08-04T07:49:21;26.30;99.90
31542;DHT22;18152;49.986;8.646;2022-08-04T07:51:47;26.30;99.90
31542;DHT22;18152;49.986;8.646;2022-08-04T07:54:13;26.20;99.90
31542;DHT22;18152;49.986;8.646;2022-08-04T07:56:40;26.40;99.90
31542;DHT22;18152;49.986;8.646;2022-08-04T07:59:06;26.60;99.90
31542;DHT22;18152;49.986;8.646;2022-08-04T08:01:34;26.60;99.90
31542;DHT22;18152;49.986;8.646;2022-08-04T08:04:00;26.60;99.90
31542;DHT22;18152;49.986;8.646;2022-08-04T08:06:27;26.70;99.90
31542;DHT22;18152;49.986;8.646;2022-08-04T08:08:54;27.10;98.40
31542;DHT22;18152;49.986;8.646;2022-08-04T08:11:20;27.70;99.90
31542;DHT22;18152;49.986;8.646;2022-08-04T08:13:47;27.90;93.50
31542;DHT22;18152;49.986;8.646;2022-08-04T08:16:13;28.30;94.80
31542;DHT22;18152;49.986;8.646;2022-08-04T08:18:39;28.40;97.50
31542;DHT22;18152;49.986;8.646;2022-08-04T08:21:05;28.60;97.60
31542;DHT22;18152;49.986;8.646;2022-08-04T08:23:33;28.50;93.00
31542;DHT22;18152;49.986;8.646;2022-08-04T08:26:00;28.30;89.00
31542;DHT22;18152;49.986;8.646;2022-08-04T08:28:26;28.10;95.00
31542;DHT22;18152;49.986;8.646;2022-08-04T08:30:52;28.90;90.70
31542;DHT22;18152;49.986;8.646;2022-08-04T08:33:19;28.70;94.20
31542;DHT22;18152;49.986;8.646;2022-08-04T08:36:02;28.70;96.60
31542;DHT22;18152;49.986;8.646;2022-08-04T08:38:54;29.60;82.00
31542;DHT22;18152;49.986;8.646;2022-08-04T08:59:00;30.80;84.30
31542;DHT22;18152;49.986;8.646;2022-08-04T09:10:45;30.60;81.30
31542;DHT22;18152;49.986;8.646;2022-08-04T09:13:32;30.70;79.40
31542;DHT22;18152;49.986;8.646;2022-08-04T09:16:05;30.30;81.80
31542;DHT22;18152;49.986;8.646;2022-08-04T09:24:15;30.50;79.40
31542;DHT22;18152;49.986;8.646;2022-08-04T09:26:55;30.60;77.00
31542;DHT22;18152;49.986;8.646;2022-08-04T09:29:36;30.90;78.30
31542;DHT22;18152;49.986;8.646;2022-08-04T09:34:42;30.90;83.90
31542;DHT22;18152;49.986;8.646;2022-08-04T09:37:21;31.20;80.50
31542;DHT22;18152;49.986;8.646;2022-08-04T09:48:33;31.80;64.30
31542;DHT22;18152;49.986;8.646;2022-08-04T09:51:01;32.10;70.30
31542;DHT22;18152;49.986;8.646;2022-08-04T09:53:41;31.90;77.30
31542;DHT22;18152;49.986;8.646;2022-08-04T09:56:23;31.40;72.50
31542;DHT22;18152;49.986;8.646;2022-08-04T10:01:37;31.40;81.30
31542;DHT22;18152;49.986;8.646;2022-08-04T10:04:08;31.50;69.20
31542;DHT22;18152;49.986;8.646;2022-08-04T10:09:31;32.00;68.70
31542;DHT22;18152;49.986;8.646;2022-08-04T10:15:39;31.40;80.40
31542;DHT22;18152;49.986;8.646;2022-08-04T10:20:54;31.70;78.60
31542;DHT22;18152;49.986;8.646;2022-08-04T10:24:00;32.40;64.50
31542;DHT22;18152;49.986;8.646;2022-08-04T10:26:24;32.80;65.50
31542;DHT22;18152;49.986;8.646;2022-08-04T10:29:02;33.20;61.10
31542;DHT22;18152;49.986;8.646;2022-08-04T10:31:34;33.20;60.90
31542;DHT22;18152;49.986;8.646;2022-08-04T10:34:09;33.30;66.60
31542;DHT22;18152;49.986;8.646;2022-08-04T10:36:47;33.00;72.60
31542;DHT22;18152;49.986;8.646;2022-08-04T10:39:17;33.20;64.20
31542;DHT22;18152;49.986;8.646;2022-08-04T10:42:07;33.00;70.50
31542;DHT22;18152;49.986;8.646;2022-08-04T10:47:21;32.90;74.70
31542;DHT22;18152;49.986;8.646;2022-08-04T10:49:58;33.30;67.90
31542;DHT22;18152;49.986;8.646;2022-08-04T10:52:34;33.10;72.20
31542;DHT22;18152;49.986;8.646;2022-08-04T10:55:17;33.40;67.90
31542;DHT22;18152;49.986;8.646;2022-08-04T10:57:55;33.60;69.30
31542;DHT22;18152;49.986;8.646;2022-08-04T11:00:25;33.60;58.50
31542;DHT22;18152;49.986;8.646;2022-08-04T11:03:19;33.90;59.10
31542;DHT22;18152;49.986;8.646;2022-08-04T11:05:54;34.10;61.00
31542;DHT22;18152;49.986;8.646;2022-08-04T11:08:27;34.00;62.30
31542;DHT22;18152;49.986;8.646;2022-08-04T11:11:15;33.90;68.90
31542;DHT22;18152;49.986;8.646;2022-08-04T11:14:01;33.30;67.00
31542;DHT22;18152;49.986;8.646;2022-08-04T11:17:25;33.00;66.50
31542;DHT22;18152;49.986;8.646;2022-08-04T11:22:43;32.60;79.40
31542;DHT22;18152;49.986;8.646;2022-08-04T11:25:34;32.40;72.90
31542;DHT22;18152;49.986;8.646;2022-08-04T11:28:25;32.90;60.80
31542;DHT22;18152;49.986;8.646;2022-08-04T11:31:06;33.30;73.80
31542;DHT22;18152;49.986;8.646;2022-08-04T11:39:13;32.60;65.30
31542;DHT22;18152;49.986;8.646;2022-08-04T11:41:55;32.60;76.20
31542;DHT22;18152;49.986;8.646;2022-08-04T11:44:58;33.30;68.50
31542;DHT22;18152;49.986;8.646;2022-08-04T11:50:33;34.00;61.30
31542;DHT22;18152;49.986;8.646;2022-08-04T12:04:10;34.20;55.10
31542;DHT22;18152;49.986;8.646;2022-08-04T12:10:20;33.90;65.00
31542;DHT22;18152;49.986;8.646;2022-08-04T12:12:36;33.00;68.60
31542;DHT22;18152;49.986;8.646;2022-08-04T12:15:26;32.50;70.10
31542;DHT22;18152;49.986;8.646;2022-08-04T12:18:07;32.70;68.20
31542;DHT22;18152;49.986;8.646;2022-08-04T12:20:38;32.40;67.00
31542;DHT22;18152;49.986;8.646;2022-08-04T12:23:05;32.20;73.80
31542;DHT22;18152;49.986;8.646;2022-08-04T12:25:40;32.50;70.90
31542;DHT22;18152;49.986;8.646;2022-08-04T12:28:46;32.40;73.30
31542;DHT22;18152;49.986;8.646;2022-08-04T12:31:13;32.60;68.70
31542;DHT22;18152;49.986;8.646;2022-08-04T12:33:48;32.40;73.80
31542;DHT22;18152;49.986;8.646;2022-08-04T12:36:46;32.10;70.60
31542;DHT22;18152;49.986;8.646;2022-08-04T12:39:17;31.90;74.00
31542;DHT22;18152;49.986;8.646;2022-08-04T12:42:02;32.30;73.10
31542;DHT22;18152;49.986;8.646;2022-08-04T12:44:37;32.20;75.10
31542;DHT22;18152;49.986;8.646;2022-08-04T12:47:11;32.10;74.00
31542;DHT22;18152;49.986;8.646;2022-08-04T12:49:40;31.30;74.00
31542;DHT22;18152;49.986;8.646;2022-08-04T12:52:07;31.40;77.40
31542;DHT22;18152;49.986;8.646;2022-08-04T12:54:34;31.80;71.70
31542;DHT22;18152;49.986;8.646;2022-08-04T12:57:04;32.00;72.80
31542;DHT22;18152;49.986;8.646;2022-08-04T12:59:38;31.30;73.10
31542;DHT22;18152;49.986;8.646;2022-08-04T13:02:11;31.60;74.40
31542;DHT22;18152;49.986;8.646;2022-08-04T13:04:44;31.70;73.00
31542;DHT22;18152;49.986;8.646;2022-08-04T13:07:15;31.90;77.80
31542;DHT22;18152;49.986;8.646;2022-08-04T13:09:44;32.00;59.80
31542;DHT22;18152;49.986;8.646;2022-08-04T13:12:16;33.30;54.10
31542;DHT22;18152;49.986;8.646;2022-08-04T13:14:44;33.10;62.90
31542;DHT22;18152;49.986;8.646;2022-08-04T13:17:13;32.30;70.50
31542;DHT22;18152;49.986;8.646;2022-08-04T13:19:40;32.00;64.00
31542;DHT22;18152;49.986;8.646;2022-08-04T13:22:10;32.20;61.10
31542;DHT22;18152;49.986;8.646;2022-08-04T13:24:37;31.80;71.50
31542;DHT22;18152;49.986;8.646;2022-08-04T13:27:06;31.50;74.10
31542;DHT22;18152;49.986;8.646;2022-08-04T13:29:36;31.50;73.50
31542;DHT22;18152;49.986;8.646;2022-08-04T13:32:04;31.10;74.30
31542;DHT22;18152;49.986;8.646;2022-08-04T13:34:31;30.80;77.10
31542;DHT22;18152;49.986;8.646;2022-08-04T13:36:57;31.20;64.00
31542;DHT22;18152;49.986;8.646;2022-08-04T13:39:25;31.80;57.80
31542;DHT22;18152;49.986;8.646;2022-08-04T13:41:54;31.70;75.60
31542;DHT22;18152;49.986;8.646;2022-08-04T13:44:34;31.50;64.80
31542;DHT22;18152;49.986;8.646;2022-08-04T13:47:08;31.60;71.70
31542;DHT22;18152;49.986;8.646;2022-08-04T13:49:34;31.70;67.30
31542;DHT22;18152;49.986;8.646;2022-08-04T13:52:05;31.30;65.80
31542;DHT22;18152;49.986;8.646;2022-08-04T13:54:40;31.20;68.60
31542;DHT22;18152;49.986;8.646;2022-08-04T13:57:20;30.60;65.40
31542;DHT22;18152;49.986;8.646;2022-08-04T13:59:51;31.40;57.10
31542;DHT22;18152;49.986;8.646;2022-08-04T14:04:54;32.00;54.60
31542;DHT22;18152;49.986;8.646;2022-08-04T14:07:24;32.60;51.40
31542;DHT22;18152;49.986;8.646;2022-08-04T14:09:50;32.20;53.60
31542;DHT22;18152;49.986;8.646;2022-08-04T14:12:17;32.40;53.70
31542;DHT22;18152;49.986;8.646;2022-08-04T14:14:46;32.50;50.40
31542;DHT22;18152;49.986;8.646;2022-08-04T14:17:14;32.70;48.90
31542;DHT22;18152;49.986;8.646;2022-08-04T14:19:49;32.60;49.50
31542;DHT22;18152;49.986;8.646;2022-08-04T14:25:15;33.30;50.90
31542;DHT22;18152;49.986;8.646;2022-08-04T14:30:30;33.10;54.40
31542;DHT22;18152;49.986;8.646;2022-08-04T14:35:25;34.00;47.80
31542;DHT22;18152;49.986;8.646;2022-08-04T14:37:59;34.40;46.50
31542;DHT22;18152;49.986;8.646;2022-08-04T14:40:28;34.50;46.30
31542;DHT22;18152;49.986;8.646;2022-08-04T14:42:54;34.40;47.70
31542;DHT22;18152;49.986;8.646;2022-08-04T14:45:40;34.40;47.00
31542;DHT22;18152;49.986;8.646;2022-08-04T14:48:12;34.10;48.40
31542;DHT22;18152;49.986;8.646;2022-08-04T14:50:40;34.10;50.10
31542;DHT22;18152;49.986;8.646;2022-08-04T14:53:14;34.30;47.30
31542;DHT22;18152;49.986;8.646;2022-08-04T14:55:48;34.30;45.90
31542;DHT22;18152;49.986;8.646;2022-08-04T15:00:49;34.50;45.80
31542;DHT22;18152;49.986;8.646;2022-08-04T15:03:17;33.80;45.90
31542;DHT22;18152;49.986;8.646;2022-08-04T15:05:43;33.70;48.90
31542;DHT22;18152;49.986;8.646;2022-08-04T15:08:12;33.40;50.80
31542;DHT22;18152;49.986;8.646;2022-08-04T15:10:38;33.00;54.80
31542;DHT22;18152;49.986;8.646;2022-08-04T15:13:05;32.20;60.10
31542;DHT22;18152;49.986;8.646;2022-08-04T15:15:32;31.80;61.10
31542;DHT22;18152;49.986;8.646;2022-08-04T15:17:59;31.40;61.40
31542;DHT22;18152;49.986;8.646;2022-08-04T15:20:25;31.30;61.30
31542;DHT22;18152;49.986;8.646;2022-08-04T15:22:50;31.80;49.40
31542;DHT22;18152;49.986;8.646;2022-08-04T15:25:17;32.40;50.60
31542;DHT22;18152;49.986;8.646;2022-08-04T15:27:46;32.70;48.50
31542;DHT22;18152;49.986;8.646;2022-08-04T15:30:15;33.50;46.10
31542;DHT22;18152;49.986;8.646;2022-08-04T15:32:47;33.40;47.50
31542;DHT22;18152;49.986;8.646;2022-08-04T15:35:23;33.20;47.20
31542;DHT22;18152;49.986;8.646;2022-08-04T15:40:44;33.30;48.30
31542;DHT22;18152;49.986;8.646;2022-08-04T15:46:13;32.90;49.60
31542;DHT22;18152;49.986;8.646;2022-08-04T15:48:39;32.90;47.00
31542;DHT22;18152;49.986;8.646;2022-08-04T15:51:09;32.50;50.40
31542;DHT22;18152;49.986;8.646;2022-08-04T15:58:50;31.10;54.40
31542;DHT22;18152;49.986;8.646;2022-08-04T16:01:17;31.00;53.90
31542;DHT22;18152;49.986;8.646;2022-08-04T16:03:45;30.50;57.70
31542;DHT22;18152;49.986;8.646;2022-08-04T16:16:44;31.80;50.60
31542;DHT22;18152;49.986;8.646;2022-08-04T16:19:22;32.00;49.30
31542;DHT22;18152;49.986;8.646;2022-08-04T16:21:52;31.90;52.50
31542;DHT22;18152;49.986;8.646;2022-08-04T16:26:52;32.20;50.00
31542;DHT22;18152;49.986;8.646;2022-08-04T16:34:35;32.60;49.20
31542;DHT22;18152;49.986;8.646;2022-08-04T16:37:03;32.90;48.50
31542;DHT22;18152;49.986;8.646;2022-08-04T16:39:29;33.00;48.20
31542;DHT22;18152;49.986;8.646;2022-08-04T16:41:56;33.40;45.20
31542;DHT22;18152;49.986;8.646;2022-08-04T16:46:53;33.40;46.60
31542;DHT22;18152;49.986;8.646;2022-08-04T16:49:19;33.40;47.20
31542;DHT22;18152;49.986;8.646;2022-08-04T16:51:48;32.80;51.90
31542;DHT22;18152;49.986;8.646;2022-08-04T16:54:14;32.40;52.70
31542;DHT22;18152;49.986;8.646;2022-08-04T16:56:39;32.10;53.80
31542;DHT22;18152;49.986;8.646;2022-08-04T16:59:07;31.30;52.20
31542;DHT22;18152;49.986;8.646;2022-08-04T17:01:33;31.50;49.90
31542;DHT22;18152;49.986;8.646;2022-08-04T17:03:59;31.50;52.80
31542;DHT22;18152;49.986;8.646;2022-08-04T17:06:40;31.60;51.00
31542;DHT22;18152;49.986;8.646;2022-08-04T17:11:35;31.30;56.80
31542;DHT22;18152;49.986;8.646;2022-08-04T17:14:01;31.40;49.90
31542;DHT22;18152;49.986;8.646;2022-08-04T17:16:28;31.30;54.40
31542;DHT22;18152;49.986;8.646;2022-08-04T17:18:54;31.10;50.50
31542;DHT22;18152;49.986;8.646;2022-08-04T17:21:31;31.30;50.70
31542;DHT22;18152;49.986;8.646;2022-08-04T17:24:00;31.30;51.10
31542;DHT22;18152;49.986;8.646;2022-08-04T17:26:28;31.20;50.40
31542;DHT22;18152;49.986;8.646;2022-08-04T17:28:55;30.90;54.50
31542;DHT22;18152;49.986;8.646;2022-08-04T17:31:23;31.00;50.30
31542;DHT22;18152;49.986;8.646;2022-08-04T17:33:52;31.50;48.60
31542;DHT22;18152;49.986;8.646;2022-08-04T17:36:25;31.80;48.00
31542;DHT22;18152;49.986;8.646;2022-08-04T17:38:53;32.00;48.30
31542;DHT22;18152;49.986;8.646;2022-08-04T17:41:23;31.90;49.40
31542;DHT22;18152;49.986;8.646;2022-08-04T17:53:59;31.40;51.50
31542;DHT22;18152;49.986;8.646;2022-08-04T17:59:17;30.90;49.60
31542;DHT22;18152;49.986;8.646;2022-08-04T18:02:02;31.50;49.20
31542;DHT22;18152;49.986;8.646;2022-08-04T18:14:52;30.30;53.10
31542;DHT22;18152;49.986;8.646;2022-08-04T18:17:34;30.20;53.80
31542;DHT22;18152;49.986;8.646;2022-08-04T18:20:02;30.10;56.00
31542;DHT22;18152;49.986;8.646;2022-08-04T18:22:28;29.70;59.90
31542;DHT22;18152;49.986;8.646;2022-08-04T18:24:54;29.90;54.10
31542;DHT22;18152;49.986;8.646;2022-08-04T18:27:24;29.80;55.70
31542;DHT22;18152;49.986;8.646;2022-08-04T18:29:51;29.40;62.70
31542;DHT22;18152;49.986;8.646;2022-08-04T18:32:17;29.00;66.10
31542;DHT22;18152;49.986;8.646;2022-08-04T18:34:43;28.80;68.20
31542;DHT22;18152;49.986;8.646;2022-08-04T18:37:08;28.50;70.00
31542;DHT22;18152;49.986;8.646;2022-08-04T18:39:34;28.10;73.80
31542;DHT22;18152;49.986;8.646;2022-08-04T18:42:00;27.60;73.10
31542;DHT22;18152;49.986;8.646;2022-08-04T18:44:26;27.30;71.90
31542;DHT22;18152;49.986;8.646;2022-08-04T18:46:54;27.10;71.20
31542;DHT22;18152;49.986;8.646;2022-08-04T18:49:19;27.00;72.00
31542;DHT22;18152;49.986;8.646;2022-08-04T18:51:52;27.00;73.30
31542;DHT22;18152;49.986;8.646;2022-08-04T18:54:17;27.00;70.90
31542;DHT22;18152;49.986;8.646;2022-08-04T18:56:43;26.90;74.20
31542;DHT22;18152;49.986;8.646;2022-08-04T18:59:09;26.80;71.10
31542;DHT22;18152;49.986;8.646;2022-08-04T19:01:34;26.90;73.20
31542;DHT22;18152;49.986;8.646;2022-08-04T19:04:00;26.70;76.00
31542;DHT22;18152;49.986;8.646;2022-08-04T19:06:28;26.60;73.90
31542;DHT22;18152;49.986;8.646;2022-08-04T19:08:54;26.70;72.00
31542;DHT22;18152;49.986;8.646;2022-08-04T19:11:19;26.80;66.20
31542;DHT22;18152;49.986;8.646;2022-08-04T19:13:45;26.90;64.90
31542;DHT22;18152;49.986;8.646;2022-08-04T19:16:11;26.90;67.50
31542;DHT22;18152;49.986;8.646;2022-08-04T19:18:37;26.90;68.00
31542;DHT22;18152;49.986;8.646;2022-08-04T19:21:03;26.90;65.70
31542;DHT22;18152;49.986;8.646;2022-08-04T19:23:28;26.90;62.50
31542;DHT22;18152;49.986;8.646;2022-08-04T19:25:56;26.90;62.60
31542;DHT22;18152;49.986;8.646;2022-08-04T19:28:24;27.00;62.50
31542;DHT22;18152;49.986;8.646;2022-08-04T19:30:50;27.00;62.40
31542;DHT22;18152;49.986;8.646;2022-08-04T19:33:16;27.00;63.30
31542;DHT22;18152;49.986;8.646;2022-08-04T19:35:42;27.00;61.90
31542;DHT22;18152;49.986;8.646;2022-08-04T19:38:09;26.90;69.50
31542;DHT22;18152;49.986;8.646;2022-08-04T19:40:37;26.70;75.90
31542;DHT22;18152;49.986;8.646;2022-08-04T19:43:03;26.50;79.30
31542;DHT22;18152;49.986;8.646;2022-08-04T19:45:29;26.30;81.20
31542;DHT22;18152;49.986;8.646;2022-08-04T19:47:55;26.20;78.40
31542;DHT22;18152;49.986;8.646;2022-08-04T19:50:20;26.20;74.10
31542;DHT22;18152;49.986;8.646;2022-08-04T19:52:46;26.10;82.10
31542;DHT22;18152;49.986;8.646;2022-08-04T19:55:12;25.90;88.30
31542;DHT22;18152;49.986;8.646;2022-08-04T19:57:38;25.80;84.60
31542;DHT22;18152;49.986;8.646;2022-08-04T20:00:09;25.80;85.50
31542;DHT22;18152;49.986;8.646;2022-08-04T20:02:35;25.70;81.20
31542;DHT22;18152;49.986;8.646;2022-08-04T20:05:00;26.00;70.70
31542;DHT22;18152;49.986;8.646;2022-08-04T20:07:26;26.10;70.00
31542;DHT22;18152;49.986;8.646;2022-08-04T20:09:52;26.10;73.10
31542;DHT22;18152;49.986;8.646;2022-08-04T20:12:17;26.00;87.50
31542;DHT22;18152;49.986;8.646;2022-08-04T20:14:43;25.90;88.30
31542;DHT22;18152;49.986;8.646;2022-08-04T20:17:08;25.90;73.00
31542;DHT22;18152;49.986;8.646;2022-08-04T20:19:34;26.00;72.70
31542;DHT22;18152;49.986;8.646;2022-08-04T20:22:00;25.90;80.50
31542;DHT22;18152;49.986;8.646;2022-08-04T20:24:25;25.90;82.20
31542;DHT22;18152;49.986;8.646;2022-08-04T20:26:51;25.80;77.40
31542;DHT22;18152;49.986;8.646;2022-08-04T20:29:16;25.70;83.10
31542;DHT22;18152;49.986;8.646;2022-08-04T20:31:42;25.70;84.90
31542;DHT22;18152;49.986;8.646;2022-08-04T20:34:07;25.60;91.00
31542;DHT22;18152;49.986;8.646;2022-08-04T20:36:33;25.60;84.00